Time;durP1;ratioP1;P1;durP2;ratioP2;P2;SDS_P1;SDS_P2;PMS_P1;PMS_P2;Temp;Humidity;BMP_temperature;BMP_pressure;BME280_temperature;BME280_humidity;BME280_pressure;Samples;Min_cycle;Max_cycle;Signal;HPM_P1;HPM_P2
2022/10/04 00:02:59;;;;;;;9.70;3.70;;;;;;;10.37;92.23;99967.36;130383;1267;110254;-71
2022/10/04 00:06:06;;;;;;;8.60;3.90;;;;;;;10.33;92.70;99974.78;130537;1268;108591;-71
2022/10/04 00:09:15;;;;;;;7.70;4.20;;;;;;;10.35;92.13;99970.98;130537;1268;108792;-72
2022/10/04 00:12:24;;;;;;;7.30;4.00;;;;;;;10.38;92.17;99966.94;130343;1267;108638;-72
2022/10/04 00:15:34;;;;;;;7.50;3.50;;;;;;;10.41;92.17;99963.22;130462;1267;107521;-71
2022/10/04 00:18:44;;;;;;;9.50;3.60;;;;;;;10.42;92.33;99964.19;130563;1268;108648;-72
2022/10/04 00:22:13;;;;;;;10.30;4.00;;;;;;;10.42;92.36;99964.89;130413;1267;106811;-71
2022/10/04 00:25:33;;;;;;;8.20;3.80;;;;;;;10.41;92.42;99962.69;130539;1267;108861;-72
2022/10/04 00:28:46;;;;;;;7.50;4.10;;;;;;;10.43;92.56;99954.09;130402;1268;108543;-71
2022/10/04 00:32:25;;;;;;;7.20;3.30;;;;;;;10.46;92.13;99953.48;130383;1268;108818;-71
2022/10/04 00:35:51;;;;;;;6.00;3.00;;;;;;;10.44;92.64;99949.77;130524;1268;108700;-71
2022/10/04 00:39:32;;;;;;;6.90;3.20;;;;;;;10.42;92.13;99947.52;130579;1268;108662;-71
2022/10/04 00:42:55;;;;;;;5.50;3.20;;;;;;;10.41;91.96;99939.61;130462;1267;108595;-71
2022/10/04 00:46:05;;;;;;;7.20;3.50;;;;;;;10.38;91.99;99940.58;130502;1268;107079;-71
2022/10/04 00:49:15;;;;;;;5.70;2.60;;;;;;;10.30;91.87;99941.08;130437;1268;109541;-72
2022/10/04 00:52:25;;;;;;;6.60;3.00;;;;;;;10.26;91.27;99940.56;130486;1268;108401;-71
2022/10/04 00:55:35;;;;;;;5.80;2.50;;;;;;;10.24;91.36;99936.30;130323;1267;108576;-71
2022/10/04 00:59:03;;;;;;;6.80;3.10;;;;;;;10.23;91.11;99937.29;130336;1268;108926;-71
2022/10/04 01:02:16;;;;;;;4.60;2.10;;;;;;;10.21;90.80;99934.88;130309;1268;108438;-71
2022/10/04 01:05:26;;;;;;;5.30;2.10;;;;;;;10.18;90.61;99937.84;130471;1268;109192;-73
2022/10/04 01:08:35;;;;;;;4.70;2.50;;;;;;;10.18;90.65;99937.30;130322;1268;108339;-69
2022/10/04 01:11:47;;;;;;;4.60;2.50;;;;;;;10.22;90.71;99934.55;130205;1268;109529;-70
2022/10/04 01:15:02;;;;;;;5.60;2.80;;;;;;;10.20;90.57;99938.85;130452;1268;108588;-71
2022/10/04 01:18:15;;;;;;;5.50;2.70;;;;;;;10.13;90.71;99941.50;130290;1268;108703;-74
2022/10/04 01:21:30;;;;;;;4.20;2.20;;;;;;;10.10;90.90;99943.48;130285;1267;108707;-71
2022/10/04 01:24:37;;;;;;;4.50;2.20;;;;;;;10.06;90.90;99945.65;130369;1268;109517;-70
2022/10/04 01:27:45;;;;;;;6.20;2.60;;;;;;;10.03;91.04;99945.27;130373;1268;109013;-71
2022/10/04 01:30:50;;;;;;;4.40;2.40;;;;;;;10.02;90.78;99952.83;130348;1268;108411;-71
2022/10/04 01:33:57;;;;;;;3.40;2.40;;;;;;;10.01;90.84;99952.77;130418;1268;109132;-71
2022/10/04 01:37:02;;;;;;;5.70;2.00;;;;;;;9.98;90.92;99955.88;130277;1268;108878;-72
2022/10/04 01:40:10;;;;;;;4.80;2.00;;;;;;;9.96;90.77;99957.33;130261;1268;107235;-70
2022/10/04 01:43:23;;;;;;;4.50;1.90;;;;;;;9.97;90.90;99955.07;130392;1268;108581;-71
2022/10/04 01:46:35;;;;;;;6.80;2.80;;;;;;;10.03;90.99;99955.01;130344;1267;107161;-72
2022/10/04 01:49:43;;;;;;;5.80;2.50;;;;;;;10.09;91.14;99955.14;130457;1267;108417;-71
2022/10/04 01:52:54;;;;;;;5.90;2.70;;;;;;;10.14;90.92;99954.38;130270;1267;108924;-71
2022/10/04 01:56:08;;;;;;;8.30;2.20;;;;;;;10.18;91.08;99952.20;130373;1268;107803;-71
2022/10/04 01:59:21;;;;;;;6.90;2.80;;;;;;;10.19;90.95;99953.14;130336;1268;108949;-71
2022/10/04 02:02:33;;;;;;;6.40;2.80;;;;;;;10.22;91.06;99953.06;130383;1268;108697;-70
2022/10/04 02:05:39;;;;;;;;;;;;;;;10.26;91.04;99949.10;130271;1268;106874;-70
2022/10/04 02:08:50;;;;;;;5.70;3.30;;;;;;;10.24;91.08;99945.56;130391;1267;109614;-71
2022/10/04 02:11:57;;;;;;;7.20;3.00;;;;;;;10.17;91.13;99948.09;130314;1268;108194;-71
2022/10/04 02:15:06;;;;;;;6.50;2.90;;;;;;;10.11;91.57;99951.55;130466;1267;107706;-71
2022/10/04 02:18:14;;;;;;;8.70;3.00;;;;;;;10.10;91.66;99953.38;130419;1268;108458;-71
2022/10/04 02:21:21;;;;;;;8.50;3.30;;;;;;;10.13;91.95;99955.60;130537;1267;107229;-71
2022/10/04 02:24:27;;;;;;;7.50;3.30;;;;;;;10.15;91.88;99954.65;130554;1268;107420;-71
2022/10/04 02:27:33;;;;;;;5.90;3.00;;;;;;;10.15;92.30;99955.60;130688;1268;108923;-71
2022/10/04 02:30:41;;;;;;;8.30;2.70;;;;;;;10.13;92.52;99955.23;132189;1267;108837;-72
2022/10/04 02:33:49;;;;;;;6.80;3.10;;;;;;;10.15;92.30;99949.30;130340;1267;108018;-71
2022/10/04 02:36:55;;;;;;;8.40;3.30;;;;;;;10.17;92.28;99951.83;130406;1267;107711;-70
2022/10/04 02:40:08;;;;;;;8.90;3.50;;;;;;;10.21;92.17;99956.55;130485;1267;108970;-70
2022/10/04 02:43:19;;;;;;;6.00;3.10;;;;;;;10.25;92.37;99953.64;130270;1267;108979;-72
2022/10/04 02:46:28;;;;;;;8.10;3.30;;;;;;;10.24;92.80;99960.52;130419;1268;108722;-70
2022/10/04 02:49:38;;;;;;;8.80;3.50;;;;;;;10.23;93.14;99961.25;130451;1267;109034;-71
2022/10/04 02:52:49;;;;;;;8.50;3.80;;;;;;;10.27;93.15;99965.73;130257;1269;108756;-71
2022/10/04 02:55:55;;;;;;;8.40;4.00;;;;;;;10.29;92.85;99969.44;130443;1267;108457;-70
2022/10/04 02:59:04;;;;;;;8.70;3.60;;;;;;;10.30;93.00;99965.59;130250;1268;109611;-70
2022/10/04 03:02:24;;;;;;;8.80;3.50;;;;;;;10.30;93.35;99960.79;130258;1267;108457;-70
2022/10/04 03:05:30;;;;;;;11.50;4.60;;;;;;;10.32;93.29;99965.20;130212;1268;109422;-70
2022/10/04 03:08:44;;;;;;;8.30;3.80;;;;;;;10.32;93.55;99964.88;130259;1267;108854;-70
2022/10/04 03:11:51;;;;;;;8.30;4.30;;;;;;;10.30;93.65;99966.68;130232;1268;108665;-71
2022/10/04 03:14:57;;;;;;;8.40;3.50;;;;;;;10.29;93.40;99971.59;130463;1268;108867;-71
2022/10/04 03:18:03;;;;;;;7.30;3.30;;;;;;;10.31;92.99;99976.19;130285;1267;108680;-73
2022/10/04 03:21:13;;;;;;;9.80;4.10;;;;;;;10.34;93.17;99976.05;130213;1268;109635;-73
2022/10/04 03:24:23;;;;;;;6.60;3.80;;;;;;;10.35;93.10;99976.49;130502;1267;109664;-71
2022/10/04 03:27:32;;;;;;;12.80;4.40;;;;;;;10.36;92.95;99974.80;130432;1267;107705;-71
2022/10/04 03:30:43;;;;;;;8.80;4.00;;;;;;;10.35;93.03;99972.63;130254;1268;107417;-71
2022/10/04 03:33:49;;;;;;;8.20;3.20;;;;;;;10.30;93.09;99981.64;130364;1268;108536;-72
2022/10/04 03:36:58;;;;;;;8.00;3.70;;;;;;;10.29;92.95;99978.19;130341;1268;108510;-71
2022/10/04 03:40:08;;;;;;;8.40;3.90;;;;;;;10.30;92.85;99976.59;130411;1268;108991;-72
2022/10/04 03:43:15;;;;;;;9.50;4.50;;;;;;;10.31;92.98;99976.69;130483;1268;108618;-72
2022/10/04 03:46:22;;;;;;;8.30;3.40;;;;;;;10.28;93.02;99977.16;130358;1268;108730;-73
2022/10/04 03:49:35;;;;;;;10.70;3.50;;;;;;;10.27;93.20;99977.45;130457;1268;108794;-72
2022/10/04 03:52:49;;;;;;;8.10;3.60;;;;;;;10.32;93.11;99980.20;130387;1268;108745;-72
2022/10/04 03:55:54;;;;;;;7.70;3.80;;;;;;;10.30;92.87;99981.98;130412;1268;108796;-72
2022/10/04 03:59:02;;;;;;;9.10;4.00;;;;;;;10.29;93.02;99980.83;130420;1268;108637;-72
2022/10/04 04:02:16;;;;;;;7.40;3.20;;;;;;;10.25;93.25;99986.21;130479;1268;108675;-72
2022/10/04 04:05:26;;;;;;;7.30;3.00;;;;;;;10.19;93.31;99985.90;130362;1268;108564;-72
2022/10/04 04:08:38;;;;;;;7.30;2.90;;;;;;;10.18;93.63;99989.73;130491;1268;109119;-72
2022/10/04 04:11:47;;;;;;;7.70;3.00;;;;;;;10.18;93.55;99994.33;130377;1268;108730;-72
2022/10/04 04:14:54;;;;;;;9.10;3.40;;;;;;;10.18;93.18;99993.80;130343;1268;109057;-72
2022/10/04 04:18:02;;;;;;;8.00;3.00;;;;;;;10.15;93.38;99997.30;130500;1268;108758;-71
2022/10/04 04:21:10;;;;;;;8.90;3.10;;;;;;;10.14;93.56;99995.46;130188;1268;108010;-72
2022/10/04 04:24:23;;;;;;;8.80;3.30;;;;;;;10.14;93.51;100000.08;130350;1268;108990;-71
2022/10/04 04:27:33;;;;;;;6.60;3.50;;;;;;;10.20;93.50;100000.05;130361;1268;108694;-70
2022/10/04 04:30:44;;;;;;;9.10;4.20;;;;;;;10.22;93.43;100001.95;130228;1268;109489;-70
2022/10/04 04:33:58;;;;;;;10.60;4.50;;;;;;;10.19;93.42;100007.77;130299;1268;108626;-71
2022/10/04 04:37:05;;;;;;;9.60;3.80;;;;;;;10.13;94.07;100016.58;130357;1269;108596;-71
2022/10/04 04:40:25;;;;;;;14.00;5.70;;;;;;;10.10;94.37;100022.70;130388;1268;108887;-71
2022/10/04 04:43:30;;;;;;;14.30;8.80;;;;;;;10.08;94.83;100030.55;130427;1267;108691;-70
2022/10/04 04:46:38;;;;;;;12.10;6.30;;;;;;;10.08;94.46;100037.14;130388;1268;108545;-71
2022/10/04 04:49:44;;;;;;;10.80;5.40;;;;;;;10.07;94.21;100041.14;130269;1268;109263;-72
2022/10/04 04:52:52;;;;;;;19.70;8.40;;;;;;;10.10;94.30;100038.59;130380;1268;108864;-73
2022/10/04 04:56:00;;;;;;;30.10;13.60;;;;;;;10.14;93.83;100039.52;130424;1268;109100;-72
2022/10/04 04:59:08;;;;;;;102.50;47.00;;;;;;;10.17;93.87;100047.40;130349;1268;108247;-71
2022/10/04 05:02:34;;;;;;;17.00;9.60;;;;;;;10.20;93.80;100047.88;130428;1268;108731;-72
2022/10/04 05:05:45;;;;;;;11.20;6.40;;;;;;;10.18;93.75;100048.89;130361;1268;108692;-72
2022/10/04 05:08:52;;;;;;;12.70;5.90;;;;;;;10.19;93.70;100055.45;130438;1268;107141;-71
2022/10/04 05:12:02;;;;;;;10.00;6.60;;;;;;;10.19;93.75;100055.73;130466;1268;108879;-71
2022/10/04 05:15:11;;;;;;;173.70;92.40;;;;;;;10.23;93.59;100059.82;130514;1268;107229;-74
2022/10/04 05:18:28;;;;;;;20.20;10.70;;;;;;;10.24;93.67;100060.39;130284;1268;108620;-71
2022/10/04 05:21:35;;;;;;;13.00;8.40;;;;;;;10.26;93.71;100065.77;130276;1268;108805;-71
2022/10/04 05:24:43;;;;;;;11.20;6.10;;;;;;;10.25;93.55;100064.57;130169;1268;109611;-70
2022/10/04 05:27:49;;;;;;;49.80;31.50;;;;;;;10.27;93.84;100068.51;130290;1268;108378;-70
2022/10/04 05:31:11;;;;;;;18.30;10.90;;;;;;;10.31;93.66;100066.52;130169;1269;108849;-69
2022/10/04 05:34:18;;;;;;;;;;;;;;;10.40;93.65;100066.63;130278;1268;108742;-71
2022/10/04 05:37:43;;;;;;;14.50;7.80;;;;;;;10.47;93.35;100069.99;130281;1268;108952;-70
2022/10/04 05:40:56;;;;;;;40.00;18.70;;;;;;;10.49;93.19;100076.10;130320;1268;108728;-70
2022/10/04 05:44:03;;;;;;;111.40;47.10;;;;;;;10.49;93.41;100078.60;130338;1268;108736;-70
2022/10/04 05:47:12;;;;;;;13.70;8.00;;;;;;;10.53;93.07;100081.66;130364;1268;108753;-70
2022/10/04 05:50:20;;;;;;;19.80;10.80;;;;;;;10.57;93.20;100083.52;130275;1268;107492;-71
2022/10/04 05:53:34;;;;;;;21.80;9.90;;;;;;;10.57;93.09;100086.91;130285;1268;108852;-70
2022/10/04 05:57:04;;;;;;;12.30;6.10;;;;;;;10.56;92.81;100092.52;130360;1268;108615;-71
2022/10/04 06:00:17;;;;;;;13.10;8.70;;;;;;;10.55;93.15;100097.27;130423;1268;108701;-72
2022/10/04 06:03:35;;;;;;;9.60;5.60;;;;;;;10.54;92.88;100103.23;130486;1268;109226;-71
2022/10/04 06:06:48;;;;;;;11.90;6.80;;;;;;;10.57;93.15;100101.74;130425;1268;108640;-71
2022/10/04 06:10:09;;;;;;;9.60;6.20;;;;;;;10.61;92.85;100113.77;130425;1268;106693;-71
2022/10/04 06:13:27;;;;;;;13.10;7.40;;;;;;;10.61;93.02;100118.94;130361;1268;108598;-71
2022/10/04 06:16:49;;;;;;;10.90;5.20;;;;;;;10.64;92.97;100119.35;130333;1268;108719;-72
2022/10/04 06:20:25;;;;;;;10.30;5.60;;;;;;;10.65;92.68;100125.63;130341;1268;108856;-71
2022/10/04 06:23:36;;;;;;;49.20;33.50;;;;;;;10.66;92.70;100133.20;130330;1268;109544;-72
2022/10/04 06:26:47;;;;;;;15.60;8.80;;;;;;;10.65;92.90;100134.02;130341;1268;108921;-72
2022/10/04 06:29:57;;;;;;;12.70;7.20;;;;;;;10.69;92.61;100136.27;130159;1268;108893;-71
2022/10/04 06:33:31;;;;;;;9.90;5.80;;;;;;;10.72;92.53;100138.41;130169;1268;108843;-70
2022/10/04 06:36:54;;;;;;;35.90;15.30;;;;;;;10.77;92.60;100139.73;130271;1268;107587;-70
2022/10/04 06:40:24;;;;;;;25.80;12.20;;;;;;;10.82;92.81;100140.63;130286;1268;108502;-70
2022/10/04 06:43:58;;;;;;;48.80;21.90;;;;;;;10.83;92.09;100155.34;130399;1267;108685;-70
2022/10/04 06:47:19;;;;;;;8.90;5.80;;;;;;;10.85;91.95;100162.19;130303;1268;108150;-70
2022/10/04 06:50:36;;;;;;;14.20;7.80;;;;;;;10.85;91.75;100170.79;130080;1268;108761;-71
2022/10/04 06:53:54;;;;;;;13.30;8.70;;;;;;;10.86;92.23;100174.39;130178;1268;108960;-70
2022/10/04 06:57:33;;;;;;;11.80;7.70;;;;;;;10.88;91.75;100183.11;130292;1268;107504;-70
2022/10/04 07:00:48;;;;;;;13.00;7.30;;;;;;;10.74;91.60;100189.87;130390;1268;108900;-72
2022/10/04 07:04:02;;;;;;;11.40;6.70;;;;;;;10.69;91.85;100192.14;130399;1268;108635;-70
2022/10/04 07:07:34;;;;;;;11.10;7.60;;;;;;;10.76;91.93;100189.84;130364;1268;109788;-70
2022/10/04 07:10:51;;;;;;;11.50;9.00;;;;;;;10.89;91.54;100196.88;130343;1268;108771;-70
2022/10/04 07:14:04;;;;;;;8.50;5.80;;;;;;;10.96;91.23;100202.86;130240;1268;108786;-70
2022/10/04 07:17:14;;;;;;;10.10;6.20;;;;;;;10.99;90.97;100206.02;130363;1268;109190;-72
2022/10/04 07:20:23;;;;;;;10.00;6.30;;;;;;;11.00;90.59;100213.02;130225;1267;109495;-70
2022/10/04 07:23:33;;;;;;;11.20;7.00;;;;;;;11.02;90.75;100213.02;130379;1268;108873;-70
2022/10/04 07:26:46;;;;;;;12.50;7.30;;;;;;;11.01;90.88;100215.17;130427;1268;109503;-72
2022/10/04 07:29:58;;;;;;;16.40;12.10;;;;;;;11.03;90.57;100215.20;130363;1268;108575;-70
2022/10/04 07:33:08;;;;;;;12.00;7.40;;;;;;;11.17;90.76;100216.09;130316;1268;108586;-69
2022/10/04 07:36:17;;;;;;;9.00;6.50;;;;;;;11.29;90.41;100211.31;130378;1268;109171;-71
2022/10/04 07:39:27;;;;;;;8.70;6.90;;;;;;;11.44;89.58;100215.48;130319;1268;108868;-71
2022/10/04 07:42:40;;;;;;;10.30;6.70;;;;;;;11.56;89.78;100220.79;130504;1268;109077;-71
2022/10/04 07:45:46;;;;;;;11.00;5.60;;;;;;;11.63;89.08;100222.34;130390;1268;108809;-70
2022/10/04 07:48:52;;;;;;;8.00;5.50;;;;;;;11.64;88.92;100222.05;130412;1268;108507;-71
2022/10/04 07:52:12;;;;;;;9.80;6.10;;;;;;;11.69;88.55;100224.20;130473;1267;108552;-70
2022/10/04 07:55:27;;;;;;;7.80;6.10;;;;;;;11.80;88.41;100225.42;130287;1268;108674;-70
2022/10/04 07:58:49;;;;;;;8.50;5.90;;;;;;;11.87;87.66;100229.90;130433;1267;108819;-71
2022/10/04 08:02:07;;;;;;;8.70;5.10;;;;;;;11.97;87.60;100231.80;130400;1268;108739;-71
2022/10/04 08:05:22;;;;;;;9.00;5.30;;;;;;;12.09;86.81;100231.27;130378;1268;108796;-71
2022/10/04 08:08:45;;;;;;;8.30;5.30;;;;;;;12.21;86.74;100233.55;130444;1268;108715;-70
2022/10/04 08:12:01;;;;;;;7.10;4.90;;;;;;;12.22;85.54;100241.69;130296;1268;108522;-70
2022/10/04 08:15:31;;;;;;;6.40;4.20;;;;;;;12.22;85.36;100245.11;130319;1268;109222;-70
2022/10/04 08:18:51;;;;;;;5.70;4.00;;;;;;;12.22;84.47;100246.89;130370;1266;109126;-70
2022/10/04 08:22:03;;;;;;;5.90;4.30;;;;;;;12.22;84.30;100250.11;130319;1268;110459;-70
2022/10/04 08:25:20;;;;;;;6.80;4.80;;;;;;;12.16;84.71;100252.24;130368;1268;108699;-70
2022/10/04 08:32:08;;;;;;;7.80;5.70;;;;;;;12.09;84.76;100257.64;130042;1270;108132;-70
2022/10/04 08:35:32;;;;;;;6.40;5.10;;;;;;;12.14;85.40;100263.23;130465;1267;108788;-70
2022/10/04 08:38:46;;;;;;;13.30;12.00;;;;;;;12.32;85.10;100262.74;130337;1268;108486;-70
2022/10/04 08:42:33;;;;;;;8.60;4.90;;;;;;;12.42;85.58;100265.27;130223;1268;108648;-70
2022/10/04 08:46:17;;;;;;;6.20;3.90;;;;;;;12.45;84.92;100270.98;130397;1268;109009;-71
2022/10/04 08:49:47;;;;;;;7.80;4.70;;;;;;;12.48;84.45;100269.16;130047;1268;109007;-71
2022/10/04 08:53:35;;;;;;;7.90;5.50;;;;;;;12.53;84.69;100269.33;130431;1268;108860;-71
2022/10/04 08:57:04;;;;;;;5.90;4.70;;;;;;;12.53;84.17;100277.39;130418;1267;108717;-71
2022/10/04 09:00:25;;;;;;;10.40;6.40;;;;;;;12.44;83.72;100281.55;130401;1268;108936;-72
2022/10/04 09:04:15;;;;;;;5.80;4.40;;;;;;;12.43;83.96;100284.23;130263;1268;108729;-71
2022/10/04 09:07:56;;;;;;;7.70;3.90;;;;;;;12.46;83.85;100283.84;130313;1268;108623;-70
2022/10/04 09:11:40;;;;;;;5.30;3.10;;;;;;;12.54;82.64;100289.23;130445;1267;108493;-71
2022/10/04 09:15:21;;;;;;;4.60;2.50;;;;;;;12.64;82.49;100299.98;130334;1268;108561;-71
2022/10/04 09:18:48;;;;;;;4.50;2.20;;;;;;;12.83;82.83;100296.53;130252;1267;108655;-71
2022/10/04 09:22:18;;;;;;;4.80;3.30;;;;;;;12.82;82.70;100285.58;130516;1268;108727;-71
2022/10/04 09:26:05;;;;;;;7.00;3.40;;;;;;;12.88;83.51;100291.40;130389;1267;108940;-71
2022/10/04 09:29:33;;;;;;;5.60;4.20;;;;;;;13.09;82.47;100296.73;130404;1267;108615;-72
2022/10/04 09:33:17;;;;;;;6.30;4.30;;;;;;;13.31;82.30;100301.81;130301;1268;108802;-72
2022/10/04 09:36:42;;;;;;;6.00;2.90;;;;;;;13.34;80.02;100315.81;130502;1267;108623;-71
2022/10/04 09:40:33;;;;;;;5.70;3.70;;;;;;;13.17;79.30;100310.79;130390;1267;107586;-71
2022/10/04 09:44:06;;;;;;;6.30;4.10;;;;;;;13.20;80.28;100318.92;130208;1266;108592;-70
2022/10/04 09:47:40;;;;;;;6.50;3.30;;;;;;;13.21;77.87;100320.40;130514;1267;108757;-71
2022/10/04 09:51:30;;;;;;;5.70;3.20;;;;;;;13.13;78.52;100320.04;130283;1268;108933;-71
2022/10/04 09:55:18;;;;;;;4.20;2.40;;;;;;;12.95;77.75;100327.44;130063;1268;107861;-70
2022/10/04 09:58:52;;;;;;;4.20;2.70;;;;;;;12.83;79.06;100330.58;130264;1267;109219;-71
2022/10/04 10:02:27;;;;;;;5.50;3.20;;;;;;;12.86;79.73;100331.02;130567;1267;108936;-70
2022/10/04 10:05:48;;;;;;;6.40;4.10;;;;;;;12.95;79.63;100338.05;130263;1267;108634;-71
2022/10/04 10:09:07;;;;;;;4.90;4.10;;;;;;;12.91;79.57;100338.14;130346;1267;109503;-70
2022/10/04 10:16:04;;;;;;;6.90;3.50;;;;;;;12.90;78.70;100350.33;130338;1266;108823;-70
2022/10/04 10:19:34;;;;;;;5.50;3.50;;;;;;;13.01;77.90;100349.02;130327;1267;108671;-70
2022/10/04 10:23:06;;;;;;;6.10;3.90;;;;;;;13.09;77.94;100352.95;130345;1266;110339;-70
2022/10/04 10:26:28;;;;;;;8.00;4.30;;;;;;;13.17;78.32;100352.31;130326;1267;108630;-71
2022/10/04 10:29:48;;;;;;;10.50;6.90;;;;;;;13.30;78.63;100362.05;130405;1267;108634;-70
2022/10/04 10:33:20;;;;;;;11.20;6.80;;;;;;;13.36;78.81;100361.52;130432;1267;108659;-71
2022/10/04 10:36:45;;;;;;;7.80;5.20;;;;;;;13.41;78.05;100374.34;130469;1267;108709;-70
2022/10/04 10:40:16;;;;;;;7.80;4.40;;;;;;;13.38;78.36;100377.36;130360;1267;109750;-70
2022/10/04 10:43:40;;;;;;;8.60;4.70;;;;;;;13.32;77.85;100379.94;130302;1267;108958;-70
2022/10/04 10:46:58;;;;;;;9.20;5.20;;;;;;;13.26;78.42;100379.48;130249;1268;108675;-72
2022/10/04 10:50:21;;;;;;;11.20;7.60;;;;;;;13.28;78.37;100380.23;130314;1268;108781;-71
2022/10/04 10:53:51;;;;;;;7.00;4.50;;;;;;;13.44;79.61;100378.23;130368;1267;108874;-70
2022/10/04 10:57:12;;;;;;;5.90;3.70;;;;;;;13.56;78.23;100381.67;129983;1268;334768;-70
2022/10/04 11:00:33;;;;;;;5.80;3.90;;;;;;;13.56;78.36;100385.70;130253;1268;109244;-71
2022/10/04 11:04:11;;;;;;;7.50;4.10;;;;;;;13.48;77.94;100388.89;130381;1267;107207;-70
2022/10/04 11:07:36;;;;;;;7.00;4.60;;;;;;;13.48;78.07;100392.55;130462;1267;107689;-70
2022/10/04 11:11:22;;;;;;;5.30;3.50;;;;;;;13.51;78.77;100389.71;130343;1268;108794;-70
2022/10/04 11:14:48;;;;;;;7.10;4.50;;;;;;;13.56;78.97;100389.61;130288;1268;108808;-70
2022/10/04 11:18:28;;;;;;;8.00;5.30;;;;;;;13.79;79.10;100391.77;130374;1268;108589;-71
2022/10/04 11:21:53;;;;;;;8.40;5.60;;;;;;;13.98;78.49;100396.80;130222;1267;108598;-72
2022/10/04 11:25:38;;;;;;;8.10;4.20;;;;;;;14.02;77.65;100397.80;130297;1268;108731;-69
2022/10/04 11:28:55;;;;;;;7.60;3.30;;;;;;;13.64;76.69;100403.20;130392;1268;108708;-70
2022/10/04 11:32:29;;;;;;;5.60;2.90;;;;;;;13.35;77.09;100413.91;130224;1268;109908;-72
2022/10/04 11:35:45;;;;;;;4.70;3.10;;;;;;;13.27;77.74;100412.30;130314;1268;110435;-73
2022/10/04 11:39:03;;;;;;;5.20;3.30;;;;;;;13.34;78.15;100410.77;130305;1268;109317;-70
2022/10/04 11:42:21;;;;;;;7.10;4.20;;;;;;;13.54;78.04;100406.71;130384;1267;110045;-73
2022/10/04 11:45:54;;;;;;;7.20;3.50;;;;;;;13.64;75.56;100410.59;130477;1267;108856;-71
2022/10/04 11:49:16;;;;;;;7.20;3.40;;;;;;;13.62;76.47;100412.77;130420;1267;108672;-70
2022/10/04 11:52:56;;;;;;;4.40;3.30;;;;;;;13.75;76.01;100416.20;130308;1268;109606;-69
2022/10/04 11:56:15;;;;;;;5.00;3.70;;;;;;;13.89;74.95;100417.48;130323;1267;108655;-72
2022/10/04 11:59:36;;;;;;;5.10;3.30;;;;;;;14.03;75.32;100416.82;130374;1267;107399;-72
2022/10/04 12:03:29;;;;;;;3.80;2.80;;;;;;;14.14;73.04;100424.14;130476;1268;108505;-72
2022/10/04 12:06:52;;;;;;;8.30;5.20;;;;;;;14.13;73.88;100422.53;129758;1271;108743;-72
2022/10/04 12:10:13;;;;;;;4.80;3.60;;;;;;;14.30;73.88;100422.95;129876;1268;109031;-72
2022/10/04 12:13:40;;;;;;;5.30;3.60;;;;;;;14.36;73.85;100420.48;130379;1268;108957;-71
2022/10/04 12:17:08;;;;;;;7.30;4.10;;;;;;;14.43;72.52;100421.20;130435;1267;107713;-71
2022/10/04 12:20:52;;;;;;;6.80;3.70;;;;;;;14.45;73.22;100425.48;130375;1267;108789;-70
2022/10/04 12:24:14;;;;;;;5.40;3.70;;;;;;;14.34;70.77;100422.66;130301;1266;108766;-71
2022/10/04 12:27:30;;;;;;;;;;;;;;;14.26;72.34;100426.45;130460;1267;109141;-70
2022/10/04 12:30:50;;;;;;;6.70;4.10;;;;;;;14.17;70.81;100434.59;130330;1267;109707;-70
2022/10/04 12:34:05;;;;;;;5.10;4.10;;;;;;;14.11;71.34;100438.61;130448;1268;108613;-71
2022/10/04 12:37:24;;;;;;;5.50;3.30;;;;;;;14.13;71.26;100441.95;130406;1268;108793;-71
2022/10/04 12:40:39;;;;;;;5.20;3.10;;;;;;;14.11;72.19;100444.41;130398;1268;109032;-71
2022/10/04 12:43:56;;;;;;;6.80;3.00;;;;;;;14.11;71.09;100449.89;130320;1268;109696;-71
2022/10/04 12:47:30;;;;;;;4.60;2.80;;;;;;;14.04;71.51;100452.34;130325;1268;108744;-71
2022/10/04 12:50:52;;;;;;;24.90;14.00;;;;;;;14.07;72.59;100447.48;130416;1267;107655;-71
2022/10/04 12:54:10;;;;;;;13.80;7.90;;;;;;;14.09;72.85;100447.86;130446;1267;108825;-72
2022/10/04 12:57:37;;;;;;;21.80;15.40;;;;;;;14.06;71.70;100450.42;130324;1267;108693;-70
2022/10/04 13:00:47;;;;;;;6.60;4.50;;;;;;;14.11;72.15;100450.81;130352;1268;108858;-73
2022/10/04 13:04:23;;;;;;;14.80;10.00;;;;;;;14.18;71.62;100454.67;130442;1267;107240;-71
2022/10/04 13:07:42;;;;;;;64.50;30.80;;;;;;;14.26;72.77;100450.20;130152;1268;108714;-72
2022/10/04 13:11:07;;;;;;;40.10;20.10;;;;;;;14.47;72.63;100451.11;130438;1268;107673;-72
2022/10/04 13:14:40;;;;;;;10.00;5.60;;;;;;;14.55;72.33;100458.39;130369;1268;108822;-72
2022/10/04 13:17:54;;;;;;;12.90;6.20;;;;;;;14.47;71.58;100462.58;130294;1267;109565;-70
2022/10/04 13:21:03;;;;;;;22.60;11.70;;;;;;;14.43;71.56;100467.93;130214;1267;109790;-71
2022/10/04 13:24:20;;;;;;;9.80;4.50;;;;;;;14.35;70.87;100464.40;130310;1267;108590;-73
2022/10/04 13:27:37;;;;;;;134.40;60.00;;;;;;;14.23;70.81;100467.08;130347;1267;108785;-74
2022/10/04 13:30:49;;;;;;;81.80;37.00;;;;;;;14.18;72.02;100476.83;130450;1267;108829;-73
2022/10/04 13:34:08;;;;;;;83.10;38.20;;;;;;;14.15;71.26;100484.14;130269;1267;108807;-70
2022/10/04 13:37:35;;;;;;;81.60;36.90;;;;;;;14.13;72.07;100478.08;130379;1267;108538;-71
2022/10/04 13:41:02;;;;;;;273.40;129.40;;;;;;;14.05;72.42;100478.29;130183;1267;108777;-70
2022/10/04 13:44:27;;;;;;;104.80;57.00;;;;;;;14.07;72.34;100479.73;130248;1267;108855;-70
2022/10/04 13:47:47;;;;;;;115.10;58.70;;;;;;;14.03;72.64;100485.30;130354;1267;108660;-70
2022/10/04 13:51:14;;;;;;;223.10;110.00;;;;;;;14.00;72.21;100485.44;130436;1267;108040;-70
2022/10/04 13:58:02;;;;;;;69.50;33.20;;;;;;;13.83;71.68;100493.23;130313;1267;109731;-70
2022/10/04 14:01:46;;;;;;;96.10;53.10;;;;;;;13.80;71.78;100502.89;130461;1267;108483;-71
2022/10/04 14:05:17;;;;;;;89.50;51.40;;;;;;;13.74;71.38;100505.98;130449;1267;108666;-71
2022/10/04 14:08:50;;;;;;;23.40;14.90;;;;;;;13.68;70.97;100510.61;130484;1267;108934;-71
2022/10/04 14:12:18;;;;;;;109.00;52.70;;;;;;;13.64;72.08;100509.56;130384;1267;108743;-71
2022/10/04 14:16:04;;;;;;;103.70;50.10;;;;;;;13.74;72.42;100506.05;130340;1267;108667;-70
2022/10/04 14:19:36;;;;;;;67.50;37.30;;;;;;;13.78;72.03;100509.50;130502;1267;108822;-71
2022/10/04 14:23:08;;;;;;;184.80;92.10;;;;;;;13.78;72.42;100512.95;130335;1267;108605;-73
2022/10/04 14:26:30;;;;;;;61.60;31.70;;;;;;;13.79;72.11;100513.92;130346;1266;108694;-70
2022/10/04 14:30:08;;;;;;;10.60;6.10;;;;;;;13.83;72.31;100512.95;130396;1267;108603;-70
2022/10/04 14:33:47;;;;;;;7.20;4.10;;;;;;;13.83;71.91;100513.15;130502;1268;108740;-73
2022/10/04 14:37:16;;;;;;;7.30;4.40;;;;;;;13.82;72.48;100516.84;130315;1267;108985;-72
2022/10/04 14:40:35;;;;;;;5.10;3.30;;;;;;;13.78;72.04;100520.86;130455;1267;107036;-72
2022/10/04 14:44:09;;;;;;;7.80;5.40;;;;;;;13.79;72.69;100522.50;130434;1267;108863;-73
2022/10/04 14:47:29;;;;;;;120.50;79.20;;;;;;;13.77;71.70;100530.09;130394;1267;108645;-72
2022/10/04 14:50:45;;;;;;;155.00;97.60;;;;;;;13.67;72.30;100530.61;130429;1267;108852;-72
2022/10/04 14:54:00;;;;;;;52.10;34.00;;;;;;;13.62;72.33;100525.92;130491;1266;108114;-72
2022/10/04 14:57:13;;;;;;;26.90;17.10;;;;;;;13.59;72.54;100532.21;130430;1267;108949;-72
2022/10/04 15:00:24;;;;;;;64.00;44.50;;;;;;;13.54;72.74;100536.36;130371;1267;108900;-71
2022/10/04 15:03:55;;;;;;;30.60;21.80;;;;;;;13.58;72.70;100540.30;130388;1268;108757;-70
2022/10/04 15:07:04;;;;;;;28.50;22.80;;;;;;;13.58;72.90;100535.16;130470;1267;108962;-71
2022/10/04 15:10:17;;;;;;;42.60;35.90;;;;;;;13.60;72.81;100535.14;130360;1267;108811;-71
2022/10/04 15:13:30;;;;;;;19.40;15.80;;;;;;;13.57;72.79;100537.17;130246;1267;108970;-71